Terminal Aerodrome Forecast
Issued by NWS

Home | Current Version | Previous Version | Text Only | Print | Product List | Glossary On
Versions: 1 2 3 4 5 6 7 8 9 10 11 12 13 14 15 16 17 18 19 20
000
FTUS43 KDTX 241700
TAFYIP
TAF
KYIP 241720Z 2418/2518 12010G18KT P6SM SCT080 BKN110
     FM250100 11009KT P6SM BKN080
     FM251200 09007KT 5SM -RA BKN050 OVC100
     FM251400 07008KT 3SM RA BR BKN012 OVC025=

USA.gov is the U.S. government's official web portal to all federal, state and local government web resources and services.